Time;durP1;ratioP1;P1;durP2;ratioP2;P2;SDS_P1;SDS_P2;PMS_P1;PMS_P2;Temp;Humidity;BMP_temperature;BMP_pressure;BME280_temperature;BME280_humidity;BME280_pressure;Samples;Min_cycle;Max_cycle;Signal;HPM_P1;HPM_P2
2022/08/14 00:02:02;;;;;;;7.57;4.75;;;;;;;13.45;64.16;93639.28;5008030;28;20046;-66
2022/08/14 00:04:34;;;;;;;6.93;4.93;;;;;;;13.17;65.01;93633.38;4994115;28;20406;-67
2022/08/14 00:07:11;;;;;;;6.67;4.67;;;;;;;13.09;65.43;93625.78;5008993;28;20049;-66
2022/08/14 00:09:41;;;;;;;7.75;4.88;;;;;;;13.09;65.82;93626.53;5009459;28;20054;-68
2022/08/14 00:12:30;;;;;;;7.32;5.20;;;;;;;13.21;65.75;93615.97;5021087;28;20801;-68
2022/08/14 00:15:16;;;;;;;7.85;4.90;;;;;;;13.42;64.56;93598.81;5028677;28;20045;-66
2022/08/14 00:17:43;;;;;;;9.52;5.07;;;;;;;13.47;64.48;93601.00;5029164;28;20045;-68
2022/08/14 00:20:17;;;;;;;6.40;4.60;;;;;;;13.45;64.53;93592.41;5028262;28;20037;-70
2022/08/14 00:22:50;;;;;;;7.72;4.90;;;;;;;13.51;64.33;93590.66;5027679;28;20448;-70
2022/08/14 00:25:24;;;;;;;7.57;4.78;;;;;;;13.38;64.70;93582.41;5028391;28;21020;-67
2022/08/14 00:28:11;;;;;;;6.35;4.50;;;;;;;13.39;63.91;93574.88;5041133;28;20045;-70
2022/08/14 00:30:44;;;;;;;7.50;4.88;;;;;;;13.39;64.56;93577.66;5028848;28;20051;-70
2022/08/14 00:33:11;;;;;;;7.40;5.07;;;;;;;13.12;65.32;93584.34;5028029;28;20045;-67
2022/08/14 00:35:43;;;;;;;6.85;5.10;;;;;;;12.91;66.13;93590.50;5028748;28;20049;-69
2022/08/14 00:38:30;;;;;;;8.38;5.38;;;;;;;12.70;67.32;93589.13;5027376;28;20406;-68
2022/08/14 00:41:00;;;;;;;7.05;4.90;;;;;;;12.74;66.97;93584.31;5028200;28;20053;-68
2022/08/14 00:43:27;;;;;;;7.93;5.10;;;;;;;12.77;66.85;93586.94;5028474;28;20503;-70
2022/08/14 00:46:03;;;;;;;8.57;5.03;;;;;;;12.84;66.58;93585.19;5028311;28;20052;-66
2022/08/14 00:48:35;;;;;;;7.55;5.20;;;;;;;12.85;66.82;93579.25;5028761;28;20445;-68
2022/08/14 00:51:07;;;;;;;7.90;5.10;;;;;;;12.81;66.42;93584.06;5028024;28;20038;-66
2022/08/14 00:53:36;;;;;;;6.80;5.20;;;;;;;12.66;66.86;93585.72;5028854;28;20056;-66
2022/08/14 00:56:06;;;;;;;6.97;4.97;;;;;;;12.47;67.54;93590.94;5028261;28;20435;-69
2022/08/14 00:58:37;;;;;;;8.07;4.77;;;;;;;12.66;67.14;93580.22;5028541;28;20050;-67
2022/08/14 01:01:13;;;;;;;7.18;4.90;;;;;;;12.74;66.65;93582.31;5028059;28;20060;-66
2022/08/14 01:03:43;;;;;;;8.40;5.10;;;;;;;12.83;66.32;93578.13;5028477;28;20171;-66
2022/08/14 01:06:16;;;;;;;8.27;4.95;;;;;;;12.86;66.20;93585.50;5027836;28;20054;-68
2022/08/14 01:08:44;;;;;;;7.25;4.85;;;;;;;12.81;66.24;93570.31;5028823;28;20045;-66
2022/08/14 01:11:26;;;;;;;8.60;5.10;;;;;;;12.81;66.06;93569.53;5027482;28;20831;-69
2022/08/14 01:14:02;;;;;;;7.50;5.00;;;;;;;12.76;66.27;93554.34;5028183;28;20724;-67
2022/08/14 01:16:49;;;;;;;8.32;5.00;;;;;;;12.73;66.36;93561.47;5028467;28;20502;-66
2022/08/14 01:22:10;;;;;;;7.18;5.25;;;;;;;12.24;68.21;93564.44;5026287;28;20029;-66
2022/08/14 01:24:40;;;;;;;7.20;5.03;;;;;;;12.14;68.32;93560.78;5022649;28;20037;-66
2022/08/14 01:27:13;;;;;;;7.00;5.10;;;;;;;12.15;68.25;93558.78;5025108;28;20437;-66
2022/08/14 01:29:40;;;;;;;7.00;4.88;;;;;;;12.13;68.34;93551.00;5028003;28;20052;-66
2022/08/14 01:32:27;;;;;;;11.27;7.40;;;;;;;12.03;68.53;93551.25;5027010;28;21688;-66
2022/08/14 01:34:56;;;;;;;13.43;8.20;;;;;;;12.09;68.37;93552.28;5028309;28;20045;-68
2022/08/14 01:37:45;;;;;;;13.57;8.37;;;;;;;12.14;68.05;93538.78;5016416;28;20380;-66
2022/08/14 01:40:28;;;;;;;12.77;8.18;;;;;;;12.21;67.95;93537.78;5027783;28;20450;-68
2022/08/14 01:43:10;;;;;;;13.88;7.85;;;;;;;12.11;68.44;93527.84;5026833;28;20048;-68
2022/08/14 01:45:37;;;;;;;15.13;9.63;;;;;;;11.93;69.43;93533.84;5028199;28;20046;-67
2022/08/14 01:48:08;;;;;;;16.58;8.90;;;;;;;12.13;68.61;93534.50;5027568;28;20167;-67
2022/08/14 01:50:41;;;;;;;8.63;6.20;;;;;;;12.14;69.11;93522.25;5031698;28;20053;-66
2022/08/14 01:53:09;;;;;;;8.43;5.93;;;;;;;11.99;69.74;93521.09;5031335;28;20049;-67
2022/08/14 01:55:38;;;;;;;8.48;6.40;;;;;;;12.00;69.51;93514.41;5031890;28;20094;-65
2022/08/14 01:58:11;;;;;;;11.57;6.05;;;;;;;11.90;69.19;93505.25;5031228;28;20046;-68
2022/08/14 02:00:52;;;;;;;9.07;6.38;;;;;;;12.00;68.71;93506.16;5031691;28;20048;-68
2022/08/14 02:03:22;;;;;;;8.77;5.70;;;;;;;12.02;69.11;93502.97;5031074;28;20038;-68
2022/08/14 02:05:49;;;;;;;8.10;5.60;;;;;;;11.80;69.97;93498.78;5031395;28;20076;-71
2022/08/14 02:08:16;;;;;;;7.35;5.45;;;;;;;11.49;71.39;93506.69;5030641;28;20067;-65
2022/08/14 02:11:44;;;;;;;8.32;5.68;;;;;;;11.45;71.78;93500.50;5030683;28;20481;-68
2022/08/14 02:13:58;;;;;;;8.52;5.95;;;;;;;11.46;71.64;93499.28;5025957;28;20046;-65
2022/08/14 02:16:39;;;;;;;7.70;5.70;;;;;;;11.59;71.04;93493.88;5030080;28;20095;-67
2022/08/14 02:19:14;;;;;;;8.52;5.80;;;;;;;11.68;70.60;93490.50;5030941;28;20521;-65
2022/08/14 02:21:44;;;;;;;7.75;5.75;;;;;;;11.73;70.70;93489.94;5031048;28;20122;-68
2022/08/14 02:24:19;;;;;;;8.10;5.70;;;;;;;11.64;70.43;93484.31;5030480;28;20501;-68
2022/08/14 02:27:07;;;;;;;8.90;5.18;;;;;;;11.52;70.94;93481.06;5030711;28;20394;-66
2022/08/14 02:29:55;;;;;;;7.47;5.43;;;;;;;11.46;71.63;93487.53;5031010;28;20089;-66
2022/08/14 02:32:28;;;;;;;9.25;5.70;;;;;;;11.33;72.13;93479.22;5030168;28;20801;-66
2022/08/14 02:35:16;;;;;;;7.43;5.25;;;;;;;11.22;72.50;93481.47;5030546;28;20043;-66
2022/08/14 02:37:48;;;;;;;7.80;5.50;;;;;;;11.27;72.48;93473.47;5031107;28;20048;-67
2022/08/14 02:40:17;;;;;;;7.80;5.88;;;;;;;11.19;72.59;93467.38;5029709;28;20045;-66
2022/08/14 02:42:45;;;;;;;8.93;6.10;;;;;;;11.34;72.12;93478.78;5030769;28;20468;-66
2022/08/14 02:45:20;;;;;;;8.57;5.60;;;;;;;11.33;72.23;93473.72;5029950;28;20138;-69
2022/08/14 02:47:48;;;;;;;8.60;5.70;;;;;;;11.20;73.19;93451.66;5030760;28;20068;-69
2022/08/14 02:50:23;;;;;;;8.13;5.72;;;;;;;11.17;73.42;93449.78;5029530;28;21562;-69
2022/08/14 02:52:53;;;;;;;8.45;5.80;;;;;;;11.02;73.51;93452.09;5030624;28;20051;-68
2022/08/14 02:55:29;;;;;;;8.50;5.73;;;;;;;11.00;74.00;93454.50;5029442;28;20390;-68
2022/08/14 02:57:56;;;;;;;9.38;5.95;;;;;;;11.04;74.16;93451.69;5030020;28;20475;-70
2022/08/14 03:00:31;;;;;;;7.95;6.28;;;;;;;11.11;73.77;93448.78;5029754;28;20065;-70
2022/08/14 03:03:01;;;;;;;8.35;5.70;;;;;;;11.08;74.00;93433.16;5029530;28;20054;-69
2022/08/14 03:05:34;;;;;;;8.20;5.90;;;;;;;11.03;74.15;93447.38;5030089;28;20046;-67
2022/08/14 03:08:10;;;;;;;10.10;6.17;;;;;;;10.97;74.42;93438.91;5029688;28;20053;-68
2022/08/14 03:10:40;;;;;;;8.45;5.97;;;;;;;11.02;73.99;93445.84;5030120;28;20076;-68
2022/08/14 03:13:17;;;;;;;8.80;5.80;;;;;;;11.07;73.64;93445.34;5029835;28;20048;-72
2022/08/14 03:15:52;;;;;;;7.90;5.60;;;;;;;10.98;74.04;93446.69;5030212;28;20052;-66
2022/08/14 03:18:23;;;;;;;17.15;10.55;;;;;;;10.76;74.47;93440.94;5028813;28;20418;-66
2022/08/14 03:21:04;;;;;;;9.13;6.20;;;;;;;10.82;74.39;93440.44;5028313;28;20483;-63
2022/08/14 03:23:34;;;;;;;8.77;5.95;;;;;;;10.89;74.32;93438.31;5026592;28;20061;-68
2022/08/14 03:26:09;;;;;;;8.07;5.95;;;;;;;10.87;74.92;93428.97;5030035;28;20053;-65
2022/08/14 03:28:47;;;;;;;8.13;5.90;;;;;;;10.95;74.21;93416.59;5029716;28;20033;-67
2022/08/14 03:31:14;;;;;;;8.15;5.53;;;;;;;11.08;73.90;93416.66;5029392;28;20046;-69
2022/08/14 03:33:42;;;;;;;9.57;5.70;;;;;;;11.13;73.71;93416.94;5029334;28;20037;-68
2022/08/14 03:36:12;;;;;;;7.40;5.40;;;;;;;11.10;73.55;93408.78;5029287;28;20042;-68
2022/08/14 03:39:00;;;;;;;8.30;5.47;;;;;;;11.19;73.30;93404.22;5020997;28;20585;-69
2022/08/14 03:41:51;;;;;;;7.53;5.60;;;;;;;10.97;73.62;93408.72;5029748;28;20430;-68
2022/08/14 03:44:18;;;;;;;8.63;5.63;;;;;;;10.71;74.14;93396.81;5028944;28;20038;-75
2022/08/14 03:47:05;;;;;;;9.20;6.27;;;;;;;10.39;75.64;93396.34;5029151;28;20056;-66
2022/08/14 03:49:34;;;;;;;8.20;6.20;;;;;;;10.56;75.02;93396.34;5029276;28;20042;-66
2022/08/14 03:52:09;;;;;;;7.95;5.90;;;;;;;10.54;75.36;93394.06;5028942;28;20049;-68
2022/08/14 03:54:57;;;;;;;9.30;6.13;;;;;;;10.54;75.24;93396.00;5029039;28;20441;-65
2022/08/14 03:57:24;;;;;;;9.10;6.53;;;;;;;10.38;75.90;93403.03;5028825;28;20046;-66
2022/08/14 03:59:51;;;;;;;8.13;6.00;;;;;;;10.18;76.80;93408.53;5029435;28;20088;-68
2022/08/14 04:02:18;;;;;;;8.63;6.10;;;;;;;10.23;77.14;93418.22;5028922;28;20041;-72
2022/08/14 04:05:04;;;;;;;8.80;6.22;;;;;;;10.32;76.83;93414.94;5028839;28;20041;-65
2022/08/14 04:07:39;;;;;;;8.63;6.00;;;;;;;10.21;76.90;93415.16;5028891;28;20042;-66
2022/08/14 04:10:16;;;;;;;8.93;6.13;;;;;;;10.27;76.85;93418.94;5028744;28;20384;-69
2022/08/14 04:12:58;;;;;;;9.40;6.13;;;;;;;10.21;77.37;93420.63;5028026;28;20047;-63
2022/08/14 04:15:30;;;;;;;8.93;6.30;;;;;;;10.30;76.88;93426.34;5027578;28;20061;-65
2022/08/14 04:17:57;;;;;;;8.65;6.35;;;;;;;10.34;77.07;93426.25;5028550;28;20043;-68
2022/08/14 04:20:27;;;;;;;8.88;6.10;;;;;;;10.33;77.11;93430.97;5028744;28;20197;-65
2022/08/14 04:22:53;;;;;;;9.00;6.10;;;;;;;10.51;76.43;93421.56;5027472;28;20052;-68
2022/08/14 04:25:21;;;;;;;8.27;5.80;;;;;;;10.58;75.95;93422.19;5029120;28;20489;-68
2022/08/14 04:27:48;;;;;;;8.93;6.30;;;;;;;10.70;75.44;93415.22;5028740;28;20060;-65
2022/08/14 04:30:29;;;;;;;8.50;6.07;;;;;;;10.68;75.31;93400.38;5027467;28;20413;-66
2022/08/14 04:33:00;;;;;;;8.70;5.90;;;;;;;10.66;75.12;93414.53;5028213;28;20126;-67
2022/08/14 04:35:37;;;;;;;8.45;6.20;;;;;;;10.69;74.48;93410.19;5028507;28;20052;-66
2022/08/14 04:43:57;;;;;;;10.68;6.20;;;;;;;10.78;74.44;93397.41;5028894;28;20541;-64
2022/08/14 04:46:24;;;;;;;8.10;5.85;;;;;;;10.87;74.30;93387.78;5027398;28;21630;-65
2022/08/14 04:49:12;;;;;;;8.85;6.10;;;;;;;10.90;74.01;93387.69;5017037;28;20414;-67
2022/08/14 04:51:40;;;;;;;8.50;5.93;;;;;;;10.92;74.05;93404.50;5028156;28;20049;-66
2022/08/14 04:54:21;;;;;;;8.45;6.07;;;;;;;10.81;74.71;93405.97;5015306;28;20414;-67
2022/08/14 04:56:50;;;;;;;8.77;6.13;;;;;;;10.61;75.28;93404.09;5028286;28;20075;-65
2022/08/14 04:59:20;;;;;;;9.32;6.30;;;;;;;10.69;75.29;93408.19;5028009;28;20394;-65
2022/08/14 05:01:47;;;;;;;8.88;6.45;;;;;;;10.83;74.50;93411.81;5028360;28;20049;-65
2022/08/14 05:04:23;;;;;;;8.80;6.50;;;;;;;10.68;74.89;93416.84;5027575;28;20816;-70
2022/08/14 05:06:52;;;;;;;8.05;6.25;;;;;;;10.86;74.49;93411.69;5028383;28;20042;-67
2022/08/14 05:09:22;;;;;;;9.82;6.50;;;;;;;10.82;74.48;93416.50;5027949;28;20041;-69
2022/08/14 05:11:49;;;;;;;9.10;6.40;;;;;;;10.87;74.56;93412.50;5028058;28;20123;-66
2022/08/14 05:14:21;;;;;;;9.88;6.50;;;;;;;11.02;74.18;93416.41;5027938;28;20054;-65
2022/08/14 05:17:09;;;;;;;10.57;6.03;;;;;;;11.07;74.11;93415.91;5027908;28;20057;-65
2022/08/14 05:19:37;;;;;;;9.02;6.00;;;;;;;11.19;73.54;93422.69;5028370;28;20045;-65
2022/08/14 05:22:23;;;;;;;9.35;6.20;;;;;;;11.26;73.27;93413.47;5027749;28;20605;-71
2022/08/14 05:24:52;;;;;;;8.75;5.95;;;;;;;11.13;73.66;93416.16;5032197;28;20045;-68
2022/08/14 05:27:19;;;;;;;9.07;6.18;;;;;;;11.17;73.57;93395.63;5031589;28;20045;-65
2022/08/14 05:29:54;;;;;;;8.53;5.90;;;;;;;11.36;73.31;93402.19;5031991;28;20425;-65
2022/08/14 05:32:24;;;;;;;10.23;6.07;;;;;;;11.54;72.43;93401.72;5062047;28;20315;-66
2022/08/14 05:34:57;;;;;;;9.30;5.97;;;;;;;11.73;71.82;93399.25;5032101;28;20049;-65
2022/08/14 05:37:26;;;;;;;7.72;5.80;;;;;;;11.91;71.18;93402.31;5030624;28;20776;-72
2022/08/14 05:39:54;;;;;;;8.30;6.25;;;;;;;11.52;72.00;93395.13;5031939;28;20049;-69
2022/08/14 05:42:21;;;;;;;10.17;6.27;;;;;;;11.49;72.61;93396.75;5031540;28;20042;-65
2022/08/14 05:44:58;;;;;;;8.57;6.25;;;;;;;11.59;72.42;93387.44;5018790;28;20041;-63
2022/08/14 05:47:25;;;;;;;9.23;6.20;;;;;;;11.85;71.67;93382.03;5031544;28;20502;-72
2022/08/14 05:50:07;;;;;;;8.02;6.03;;;;;;;12.19;70.79;93386.16;5031500;28;20547;-65
2022/08/14 05:52:48;;;;;;;9.02;6.03;;;;;;;12.55;69.51;93385.84;5027599;28;20053;-65
2022/08/14 05:55:17;;;;;;;9.83;6.17;;;;;;;12.45;70.18;93383.44;5028271;28;20049;-69
2022/08/14 05:57:54;;;;;;;9.02;6.80;;;;;;;12.19;69.98;93377.91;5031357;28;20056;-65
2022/08/14 06:00:41;;;;;;;9.10;6.78;;;;;;;12.11;71.03;93371.06;5030781;28;21065;-72
2022/08/14 06:03:21;;;;;;;9.18;6.57;;;;;;;12.56;69.77;93375.63;5030732;28;20084;-67
2022/08/14 06:05:52;;;;;;;9.55;6.20;;;;;;;12.84;69.53;93364.88;5031420;28;20053;-65
2022/08/14 06:08:24;;;;;;;9.47;6.57;;;;;;;13.31;68.13;93355.88;5030912;28;20048;-65
2022/08/14 06:11:08;;;;;;;8.57;5.93;;;;;;;13.94;66.69;93354.78;5019540;28;20473;-68
2022/08/14 06:13:37;;;;;;;9.27;5.72;;;;;;;14.70;63.87;93349.91;5031160;28;20076;-65
2022/08/14 06:16:13;;;;;;;8.50;5.60;;;;;;;17.75;55.26;93332.44;5031016;28;20056;-65
2022/08/14 06:18:46;;;;;;;8.75;5.88;;;;;;;20.34;47.95;93316.53;5031157;28;20410;-70
2022/08/14 06:21:14;;;;;;;6.63;5.53;;;;;;;21.34;46.25;93322.50;5030896;28;20437;-69
2022/08/14 06:23:43;;;;;;;6.78;5.40;;;;;;;22.72;42.63;93313.44;5030773;28;20064;-66
2022/08/14 06:26:14;;;;;;;7.20;5.18;;;;;;;24.79;37.57;93305.91;5030449;28;20049;-66
2022/08/14 06:28:41;;;;;;;7.38;5.65;;;;;;;25.41;36.40;93297.66;5030340;28;20536;-68
2022/08/14 06:31:11;;;;;;;6.40;5.70;;;;;;;24.58;37.23;93306.34;5030371;28;20626;-67
2022/08/14 06:33:38;;;;;;;5.83;5.20;;;;;;;27.88;31.65;93303.53;5030584;28;20081;-67
2022/08/14 06:36:24;;;;;;;6.47;4.43;;;;;;;27.70;31.72;93298.78;5014582;28;20045;-67
2022/08/14 06:38:52;;;;;;;7.32;4.78;;;;;;;27.81;31.58;93295.72;5030781;28;20049;-67
2022/08/14 06:41:20;;;;;;;6.85;4.60;;;;;;;27.21;32.95;93285.09;5030696;28;20057;-68
2022/08/14 06:44:07;;;;;;;6.18;4.50;;;;;;;27.52;32.48;93285.56;5030547;28;20046;-68
2022/08/14 06:46:35;;;;;;;5.00;4.40;;;;;;;26.35;33.10;93292.66;5030615;28;20073;-67
2022/08/14 06:49:03;;;;;;;6.00;4.55;;;;;;;24.75;36.39;93289.41;5030211;28;20473;-70
2022/08/14 06:51:31;;;;;;;6.00;5.20;;;;;;;22.56;41.17;93294.66;5028515;28;20375;-69
2022/08/14 06:54:11;;;;;;;5.63;4.72;;;;;;;23.40;39.05;93293.75;5030598;28;20049;-67
2022/08/14 06:56:38;;;;;;;7.80;5.18;;;;;;;22.54;40.98;93297.94;5030907;28;20167;-67
2022/08/14 06:59:12;;;;;;;5.87;4.77;;;;;;;23.75;38.73;93305.56;5029976;28;20395;-68
2022/08/14 07:07:24;;;;;;;7.32;4.40;;;;;;;26.30;34.07;93289.38;5029519;28;20379;-67
2022/08/14 07:09:54;;;;;;;6.63;4.70;;;;;;;24.94;37.02;93297.88;5030271;28;20520;-67
2022/08/14 07:12:21;;;;;;;5.43;4.00;;;;;;;25.47;35.67;93304.00;5029839;28;20487;-66
2022/08/14 07:15:08;;;;;;;4.93;4.00;;;;;;;26.43;35.19;93305.56;5029904;28;20050;-67
2022/08/14 07:17:44;;;;;;;5.55;4.30;;;;;;;25.57;36.13;93309.25;5029864;28;20049;-67
2022/08/14 07:20:11;;;;;;;6.47;4.57;;;;;;;26.88;33.79;93307.69;5028371;28;20118;-67
2022/08/14 07:22:44;;;;;;;6.13;4.30;;;;;;;28.81;30.89;93315.88;5030009;28;20042;-69
2022/08/14 07:25:24;;;;;;;4.97;4.00;;;;;;;30.38;28.34;93307.31;5029035;28;20898;-71
2022/08/14 07:27:59;;;;;;;5.05;4.20;;;;;;;29.16;30.39;93316.59;5015631;28;20041;-65
2022/08/14 07:30:25;;;;;;;4.97;4.47;;;;;;;29.19;29.93;93307.00;5029719;28;20520;-67
2022/08/14 07:33:01;;;;;;;4.07;3.55;;;;;;;32.10;25.52;93317.56;5029525;28;20045;-70
2022/08/14 07:35:28;;;;;;;4.57;3.45;;;;;;;33.11;23.07;93318.59;5029879;28;20446;-69
2022/08/14 07:38:19;;;;;;;4.47;3.30;;;;;;;34.51;21.46;93315.91;5028119;28;20463;-69
2022/08/14 07:40:50;;;;;;;5.50;3.00;;;;;;;35.45;19.67;93311.19;5029701;28;20261;-70
2022/08/14 07:43:20;;;;;;;4.47;3.20;;;;;;;35.09;19.82;93304.09;5029207;28;20056;-70
2022/08/14 07:45:46;;;;;;;3.63;3.05;;;;;;;36.43;18.20;93294.94;5028973;28;20038;-69
2022/08/14 07:48:16;;;;;;;3.40;3.00;;;;;;;35.82;19.03;93294.78;5029027;28;23102;-69
2022/08/14 07:50:50;;;;;;;5.17;3.03;;;;;;;34.99;19.96;93293.44;5016557;28;20060;-68
2022/08/14 07:53:18;;;;;;;3.50;2.83;;;;;;;35.73;19.05;93298.34;5028037;28;20056;-71
2022/08/14 07:55:47;;;;;;;4.00;3.00;;;;;;;33.69;20.21;93295.75;5029892;28;20054;-71
2022/08/14 07:58:35;;;;;;;3.97;3.00;;;;;;;34.26;20.79;93298.97;5028500;28;21535;-69
2022/08/14 08:01:17;;;;;;;4.53;3.00;;;;;;;34.26;20.47;93299.69;5028774;28;20492;-69
2022/08/14 08:03:48;;;;;;;3.37;2.90;;;;;;;28.36;27.21;93305.63;5029187;28;20051;-71
2022/08/14 08:06:25;;;;;;;5.68;3.20;;;;;;;27.17;29.40;93301.56;5028426;28;20133;-70
2022/08/14 08:08:56;;;;;;;5.45;3.40;;;;;;;27.66;28.58;93298.34;5029067;28;20053;-68
2022/08/14 08:11:34;;;;;;;5.10;3.10;;;;;;;35.04;20.14;93288.78;5028616;28;20293;-69
2022/08/14 08:14:06;;;;;;;5.25;3.03;;;;;;;35.36;19.50;93299.13;5028430;28;20041;-68
2022/08/14 08:16:46;;;;;;;4.63;2.90;;;;;;;34.55;20.74;93294.22;5029228;28;20051;-70
2022/08/14 08:19:17;;;;;;;5.25;2.85;;;;;;;36.27;19.18;93300.97;5060510;28;20049;-69
2022/08/14 08:21:45;;;;;;;4.75;2.88;;;;;;;34.01;20.81;93309.06;5028685;28;20481;-69
2022/08/14 08:24:11;;;;;;;3.80;2.90;;;;;;;33.87;21.19;93321.38;5028128;28;20073;-71
2022/08/14 08:26:45;;;;;;;4.75;2.80;;;;;;;32.61;22.81;93322.09;5018842;28;20482;-68
2022/08/14 08:29:18;;;;;;;4.20;2.90;;;;;;;32.67;22.43;93326.81;5028154;28;20057;-68
2022/08/14 08:31:51;;;;;;;4.30;2.70;;;;;;;32.16;22.85;93329.47;5016385;28;20453;-68
2022/08/14 08:34:19;;;;;;;7.25;3.00;;;;;;;31.40;23.40;93324.66;5028169;28;20090;-68
2022/08/14 08:36:50;;;;;;;3.97;3.20;;;;;;;31.22;23.22;93318.03;5028574;28;20075;-68
2022/08/14 08:39:18;;;;;;;3.97;3.10;;;;;;;30.54;24.64;93317.34;5028368;28;20047;-68
2022/08/14 08:41:49;;;;;;;4.10;3.07;;;;;;;31.25;23.30;93311.25;5028513;28;20045;-70
2022/08/14 08:44:20;;;;;;;3.65;2.90;;;;;;;31.47;23.76;93298.38;5028340;28;20049;-68
2022/08/14 08:47:04;;;;;;;4.43;3.10;;;;;;;31.65;23.94;93273.78;5027935;28;20041;-68
2022/08/14 08:49:41;;;;;;;4.55;3.00;;;;;;;33.11;21.80;93267.44;5028882;28;20789;-69
2022/08/14 08:52:27;;;;;;;5.20;3.03;;;;;;;31.17;24.02;93254.56;5023563;28;20862;-68
2022/08/14 08:54:59;;;;;;;5.63;3.00;;;;;;;28.74;26.68;93251.63;5028617;28;20053;-68
2022/08/14 08:57:34;;;;;;;4.43;3.03;;;;;;;31.84;22.32;93262.00;5029504;28;20187;-68
2022/08/14 09:00:12;;;;;;;7.38;2.80;;;;;;;35.27;19.44;93259.91;5032097;28;20048;-70
2022/08/14 09:02:58;;;;;;;4.13;2.50;;;;;;;33.28;20.01;93263.84;5032430;28;20076;-69
2022/08/14 09:05:25;;;;;;;4.88;2.80;;;;;;;30.59;23.69;93256.22;5031911;28;21965;-69
2022/08/14 09:07:52;;;;;;;4.70;2.80;;;;;;;32.12;22.00;93251.72;5031329;28;20049;-69
2022/08/14 09:10:22;;;;;;;3.53;2.70;;;;;;;31.15;22.96;93245.09;5031552;28;20107;-69
2022/08/14 09:12:54;;;;;;;3.40;2.75;;;;;;;33.80;20.86;93248.97;5031311;28;20045;-70
2022/08/14 09:15:21;;;;;;;3.30;2.50;;;;;;;35.78;18.04;93263.81;5031679;28;20428;-71
2022/08/14 09:17:50;;;;;;;5.13;2.40;;;;;;;34.84;18.19;93265.16;5032275;28;20051;-70
2022/08/14 09:20:17;;;;;;;3.10;2.50;;;;;;;33.08;20.61;93257.16;5032072;28;20041;-69
2022/08/14 09:22:56;;;;;;;3.00;2.42;;;;;;;34.27;19.44;93249.19;5032217;28;20163;-69
2022/08/14 09:25:23;;;;;;;3.55;2.15;;;;;;;32.70;18.94;93260.31;5030110;28;20348;-69
2022/08/14 09:28:11;;;;;;;2.80;2.00;;;;;;;34.29;18.13;93250.13;5031577;28;20059;-70
2022/08/14 09:30:47;;;;;;;3.60;2.30;;;;;;;33.30;19.83;93252.66;5032138;28;20490;-74
2022/08/14 09:33:41;;;;;;;4.13;2.30;;;;;;;34.84;18.11;93241.59;5031667;28;20037;-68
2022/08/14 09:36:39;;;;;;;4.40;2.45;;;;;;;36.45;17.32;93243.66;5028755;28;21634;-70
2022/08/14 09:39:45;;;;;;;4.68;2.40;;;;;;;37.71;15.87;93243.19;5031813;28;20051;-70
2022/08/14 09:42:13;;;;;;;5.25;2.15;;;;;;;37.69;15.17;93245.13;5019096;28;20053;-69
2022/08/14 09:45:15;;;;;;;3.28;2.15;;;;;;;34.00;17.47;93236.38;5031278;28;20049;-69
2022/08/14 09:47:46;;;;;;;3.10;2.20;;;;;;;33.22;18.36;93232.84;5031749;28;20049;-68
2022/08/14 09:50:30;;;;;;;3.58;2.50;;;;;;;34.19;17.54;93229.38;5031460;28;20068;-70
2022/08/14 09:53:06;;;;;;;3.95;2.10;;;;;;;36.31;15.33;93231.94;5031083;28;20049;-70
2022/08/14 09:55:44;;;;;;;3.00;2.20;;;;;;;36.55;15.74;93233.69;5031448;28;20391;-69
2022/08/14 09:58:14;;;;;;;3.63;2.08;;;;;;;38.72;13.01;93232.53;5031278;28;20037;-71
2022/08/14 10:00:58;;;;;;;3.03;2.10;;;;;;;39.01;13.71;93228.59;5031269;28;20038;-71
2022/08/14 10:03:32;;;;;;;3.38;2.20;;;;;;;37.69;15.11;93234.47;5011091;28;20258;-69
2022/08/14 10:06:11;;;;;;;3.63;2.40;;;;;;;38.28;14.62;93229.03;5011159;28;20050;-71
2022/08/14 10:09:02;;;;;;;2.83;2.17;;;;;;;37.50;14.60;93226.69;5011487;28;20505;-69
2022/08/14 10:11:34;;;;;;;3.25;2.40;;;;;;;37.30;15.53;93228.94;5010950;28;20436;-71
2022/08/14 10:14:16;;;;;;;4.00;2.30;;;;;;;38.65;13.85;93216.31;5010907;28;20084;-69
2022/08/14 10:17:03;;;;;;;4.55;2.40;;;;;;;39.12;14.08;93214.25;5010666;28;20064;-69
2022/08/14 10:19:32;;;;;;;3.22;2.00;;;;;;;40.13;12.92;93211.59;5012018;28;20052;-69
2022/08/14 10:22:09;;;;;;;2.88;2.00;;;;;;;40.31;13.12;93209.78;5010976;28;20060;-70
2022/08/14 10:24:56;;;;;;;3.05;2.20;;;;;;;37.45;13.99;93209.88;5011210;28;20054;-72
2022/08/14 10:27:27;;;;;;;3.07;1.90;;;;;;;36.77;14.92;93208.84;5010728;28;21809;-72
2022/08/14 10:29:58;;;;;;;2.92;2.13;;;;;;;35.92;15.00;93212.72;5011215;28;20053;-69
2022/08/14 10:32:26;;;;;;;3.38;2.20;;;;;;;37.97;14.13;93209.81;5010547;28;20644;-72
2022/08/14 10:35:07;;;;;;;4.03;2.10;;;;;;;38.77;13.67;93199.84;5010502;28;20483;-69
2022/08/14 10:37:47;;;;;;;2.83;2.20;;;;;;;38.58;13.78;93197.97;5011210;28;20495;-69
2022/08/14 10:40:29;;;;;;;2.70;2.00;;;;;;;37.36;15.29;93197.13;5010469;28;20050;-69
2022/08/14 10:43:18;;;;;;;3.15;2.10;;;;;;;36.46;14.90;93196.56;5008904;28;20030;-68
2022/08/14 10:46:00;;;;;;;3.10;2.20;;;;;;;36.39;15.79;93192.53;5009376;28;20050;-69
2022/08/14 10:49:03;;;;;;;3.97;2.20;;;;;;;35.45;16.30;93197.78;5010265;28;20050;-70
2022/08/14 10:51:35;;;;;;;3.90;2.20;;;;;;;37.40;15.63;93205.25;5009982;28;20841;-69
2022/08/14 10:54:09;;;;;;;3.40;2.10;;;;;;;36.91;15.02;93200.50;5010422;28;20050;-68
2022/08/14 10:57:11;;;;;;;3.33;2.10;;;;;;;34.70;16.81;93198.47;5010871;28;20046;-67
2022/08/14 10:59:44;;;;;;;2.97;2.00;;;;;;;34.07;17.70;93197.78;5010065;28;20053;-69
2022/08/14 11:02:27;;;;;;;3.95;2.60;;;;;;;35.11;16.70;93193.78;4997153;28;20038;-68
2022/08/14 11:05:17;;;;;;;4.50;2.25;;;;;;;34.18;17.72;93194.44;5010039;28;20056;-69
2022/08/14 11:07:59;;;;;;;2.97;2.27;;;;;;;33.06;17.64;93191.63;5010383;28;20082;-69
2022/08/14 11:10:38;;;;;;;3.30;2.30;;;;;;;32.05;19.33;93187.97;5029589;28;20414;-69
2022/08/14 11:13:13;;;;;;;4.43;2.33;;;;;;;28.57;22.96;93185.03;5029924;28;20060;-68
2022/08/14 11:15:40;;;;;;;3.72;2.53;;;;;;;28.39;23.25;93175.47;5030300;28;20046;-71
2022/08/14 11:18:10;;;;;;;3.47;2.45;;;;;;;29.94;21.30;93175.13;5029603;28;20049;-68
2022/08/14 11:20:53;;;;;;;4.90;2.47;;;;;;;29.72;21.63;93190.69;5029619;28;20049;-68
2022/08/14 11:23:35;;;;;;;3.28;2.40;;;;;;;30.29;21.03;93181.22;5029466;28;20079;-67
2022/08/14 11:26:06;;;;;;;3.78;2.80;;;;;;;29.36;21.68;93176.53;5027925;28;20049;-68
2022/08/14 11:28:38;;;;;;;4.10;2.70;;;;;;;29.59;22.23;93177.41;5029404;28;20049;-68
2022/08/14 11:31:18;;;;;;;4.40;2.72;;;;;;;29.09;22.55;93176.75;5029199;28;20041;-67
2022/08/14 11:33:56;;;;;;;4.27;2.60;;;;;;;29.45;23.03;93178.84;5029633;28;20490;-70
2022/08/14 11:36:27;;;;;;;5.35;2.90;;;;;;;30.01;22.26;93170.78;5028913;28;21578;-70
2022/08/14 11:39:01;;;;;;;4.63;2.80;;;;;;;30.12;21.85;93169.66;5027913;28;20037;-69
2022/08/14 11:41:35;;;;;;;4.68;3.00;;;;;;;29.96;22.21;93157.56;5029675;28;20482;-67
2022/08/14 11:44:12;;;;;;;4.05;3.17;;;;;;;29.81;22.44;93164.69;5021139;28;20049;-67
2022/08/14 11:47:00;;;;;;;5.37;3.20;;;;;;;29.43;22.98;93159.59;5029633;28;20046;-68
2022/08/14 11:49:32;;;;;;;4.13;2.88;;;;;;;30.14;22.73;93150.03;5029850;28;20045;-68
2022/08/14 11:52:00;;;;;;;4.55;3.20;;;;;;;29.46;23.42;93152.84;5028865;28;20059;-69
2022/08/14 11:54:29;;;;;;;4.32;3.10;;;;;;;29.53;23.46;93140.06;5029408;28;20038;-67
2022/08/14 11:57:01;;;;;;;4.72;3.35;;;;;;;29.92;23.18;93140.19;5028506;28;20041;-69
2022/08/14 11:59:32;;;;;;;4.10;3.37;;;;;;;27.89;25.71;93143.59;5029473;28;20058;-69
2022/08/14 12:02:13;;;;;;;4.25;3.33;;;;;;;27.94;25.42;93139.88;5028708;28;20049;-69
2022/08/14 12:05:01;;;;;;;4.63;3.15;;;;;;;28.79;24.73;93134.94;5027739;28;20048;-68
2022/08/14 12:07:30;;;;;;;4.13;3.20;;;;;;;29.41;24.13;93133.97;5016225;28;20049;-68
2022/08/14 12:09:58;;;;;;;4.78;3.40;;;;;;;29.12;24.56;93129.69;5028834;28;20046;-67
2022/08/14 12:12:28;;;;;;;4.27;3.53;;;;;;;29.39;23.75;93128.13;5029107;28;20449;-67
2022/08/14 12:15:04;;;;;;;5.25;3.28;;;;;;;30.92;22.42;93129.72;5028466;28;20041;-67
2022/08/14 12:17:50;;;;;;;4.38;3.40;;;;;;;31.56;21.47;93127.66;5029179;28;20049;-68
2022/08/14 12:20:17;;;;;;;4.25;3.47;;;;;;;31.95;21.17;93127.44;5028674;28;20060;-68
2022/08/14 12:23:04;;;;;;;4.55;3.40;;;;;;;30.37;21.95;93118.97;5056974;28;20114;-68
2022/08/14 12:25:33;;;;;;;4.60;3.60;;;;;;;29.64;23.03;93122.00;5029321;28;20095;-67